createdAt,value
2023-04-16T00:02:23.309Z,89.22
2023-04-16T00:04:54.033Z,89.20
2023-04-16T00:07:24.532Z,89.18
2023-04-16T00:09:57.189Z,89.22
2023-04-16T00:12:29.354Z,89.17
2023-04-16T00:15:00.704Z,89.08
2023-04-16T00:17:31.664Z,89.10
2023-04-16T00:20:04.187Z,89.16
2023-04-16T00:22:34.892Z,89.22
2023-04-16T00:25:06.670Z,89.24
2023-04-16T00:27:39.826Z,89.23
2023-04-16T00:30:12.373Z,89.20
2023-04-16T00:32:44.429Z,89.08
2023-04-16T00:35:16.103Z,89.21
2023-04-16T00:37:48.886Z,89.24
2023-04-16T00:40:19.574Z,89.22
2023-04-16T00:42:52.230Z,89.23
2023-04-16T00:45:27.571Z,89.17
2023-04-16T00:48:00.730Z,89.18
2023-04-16T00:50:33.523Z,89.23
2023-04-16T00:53:06.036Z,89.27
2023-04-16T00:55:37.153Z,89.25
2023-04-16T00:58:09.708Z,89.23
2023-04-16T01:00:44.309Z,89.27
2023-04-16T01:03:15.418Z,89.25
2023-04-16T01:05:48.996Z,89.26
2023-04-16T01:08:21.554Z,89.31
2023-04-16T01:10:52.375Z,89.26
2023-04-16T01:13:23.323Z,89.28
2023-04-16T01:15:54.242Z,89.28
2023-04-16T01:18:26.950Z,89.21
2023-04-16T01:20:57.572Z,89.20
2023-04-16T01:23:28.202Z,89.16
2023-04-16T01:25:58.965Z,89.10
2023-04-16T01:28:29.589Z,89.12
2023-04-16T01:31:00.730Z,89.10
2023-04-16T01:33:31.779Z,89.16
2023-04-16T01:36:02.248Z,89.19
2023-04-16T01:38:32.931Z,89.09
2023-04-16T01:41:04.820Z,89.16
2023-04-16T01:43:35.381Z,89.25
2023-04-16T01:46:32.310Z,89.14
2023-04-16T01:49:06.642Z,89.08
2023-04-16T01:51:37.357Z,89.04
2023-04-16T01:54:08.425Z,89.09
2023-04-16T01:56:40.674Z,89.17
2023-04-16T01:59:12.340Z,89.14
2023-04-16T02:01:43.669Z,89.15
2023-04-16T02:04:14.601Z,89.22
2023-04-16T02:06:45.232Z,89.19
2023-04-16T02:09:16.314Z,89.12
2023-04-16T02:11:47.812Z,89.11
2023-04-16T02:14:20.035Z,89.16
2023-04-16T02:16:50.862Z,89.18
2023-04-16T02:19:23.285Z,89.11
2023-04-16T02:21:55.095Z,89.10
2023-04-16T02:24:25.764Z,89.07
2023-04-16T02:26:57.450Z,89.24
2023-04-16T02:29:28.871Z,89.18
2023-04-16T02:31:59.869Z,89.14
2023-04-16T02:34:35.134Z,89.13
2023-04-16T02:37:05.954Z,89.18
2023-04-16T02:39:36.523Z,89.13
2023-04-16T02:42:10.246Z,89.11
2023-04-16T02:44:43.887Z,89.04
2023-04-16T02:47:17.360Z,89.03
2023-04-16T02:49:47.951Z,89.10
2023-04-16T02:52:24.749Z,89.08
2023-04-16T02:54:55.909Z,89.13
2023-04-16T02:57:27.819Z,89.19
2023-04-16T02:59:58.562Z,89.14
2023-04-16T03:02:30.311Z,89.14
2023-04-16T03:05:01.327Z,89.24
2023-04-16T03:07:31.862Z,89.19
2023-04-16T03:10:02.818Z,89.19
2023-04-16T03:12:33.457Z,89.19
2023-04-16T03:15:04.611Z,89.26
2023-04-16T03:17:36.801Z,89.15
2023-04-16T03:20:09.210Z,89.13
2023-04-16T03:22:40.344Z,89.17
2023-04-16T03:25:11.374Z,89.15
2023-04-16T03:27:42.105Z,89.18
2023-04-16T03:30:14.386Z,89.16
2023-04-16T03:32:45.095Z,89.15
2023-04-16T03:35:16.060Z,89.09
2023-04-16T03:37:46.889Z,88.99
2023-04-16T03:40:19.547Z,89.05
2023-04-16T03:42:50.486Z,88.94
2023-04-16T03:45:23.493Z,89.05
2023-04-16T03:47:55.408Z,89.06
2023-04-16T03:50:26.166Z,88.97
2023-04-16T03:52:57.005Z,88.82
2023-04-16T03:55:27.661Z,88.89
2023-04-16T03:57:58.274Z,88.90
2023-04-16T04:00:29.070Z,88.98
2023-04-16T04:02:59.835Z,88.88
2023-04-16T04:05:32.984Z,88.89
2023-04-16T04:08:04.198Z,88.92
2023-04-16T04:10:36.273Z,88.89
2023-04-16T04:13:10.475Z,88.96
2023-04-16T04:15:41.392Z,88.84
2023-04-16T04:18:11.997Z,88.91
2023-04-16T04:20:42.828Z,88.86
2023-04-16T04:23:13.318Z,88.93
2023-04-16T04:25:46.080Z,88.93
2023-04-16T04:28:17.237Z,88.94
2023-04-16T04:30:47.908Z,88.96
2023-04-16T04:33:19.035Z,88.95
2023-04-16T04:35:49.691Z,88.95
2023-04-16T04:38:23.798Z,89.09
2023-04-16T04:40:54.607Z,89.04
2023-04-16T04:43:26.113Z,88.95
2023-04-16T04:45:56.772Z,89.04
2023-04-16T04:48:27.861Z,88.96
2023-04-16T04:50:59.925Z,89.11
2023-04-16T04:53:30.913Z,89.09
2023-04-16T04:56:09.300Z,88.98
2023-04-16T04:58:35.120Z,88.93
2023-04-16T05:01:07.129Z,88.99
2023-04-16T05:03:37.887Z,89.00
2023-04-16T05:06:08.870Z,88.96
2023-04-16T05:08:39.478Z,88.78
2023-04-16T05:11:09.910Z,88.91
2023-04-16T05:13:41.760Z,89.02
2023-04-16T05:16:12.592Z,89.05
2023-04-16T05:18:44.434Z,88.90
2023-04-16T05:21:15.107Z,88.82
2023-04-16T05:23:47.182Z,88.75
2023-04-16T05:26:17.808Z,88.81
2023-04-16T05:28:48.756Z,88.76
2023-04-16T05:31:19.378Z,88.65
2023-04-16T05:33:51.660Z,88.62
2023-04-16T05:36:22.629Z,88.78
2023-04-16T05:38:56.864Z,88.84
2023-04-16T05:41:28.271Z,88.81
2023-04-16T05:43:58.974Z,88.93
2023-04-16T05:46:29.977Z,88.86
2023-04-16T05:49:00.671Z,88.91
2023-04-16T05:51:32.408Z,89.00
2023-04-16T05:54:02.897Z,88.84
2023-04-16T05:56:33.388Z,88.81
2023-04-16T05:59:04.119Z,88.88
2023-04-16T06:01:34.851Z,88.80
2023-04-16T06:04:05.806Z,88.85
2023-04-16T06:06:37.479Z,88.82
2023-04-16T06:09:08.323Z,88.69
2023-04-16T06:11:39.338Z,88.66
2023-04-16T06:14:09.939Z,88.70
2023-04-16T06:16:42.873Z,88.66
2023-04-16T06:19:13.400Z,88.81
2023-04-16T06:21:45.436Z,88.59
2023-04-16T06:24:16.001Z,88.21
2023-04-16T06:26:48.142Z,88.47
2023-04-16T06:29:18.792Z,88.56
2023-04-16T06:31:50.028Z,88.44
2023-04-16T06:34:20.845Z,88.45
2023-04-16T06:36:52.884Z,88.36
2023-04-16T06:39:23.402Z,88.14
2023-04-16T06:41:54.101Z,88.25
2023-04-16T06:44:26.140Z,88.27
2023-04-16T06:46:56.846Z,88.17
2023-04-16T06:49:27.414Z,88.61
2023-04-16T06:51:58.995Z,88.69
2023-04-16T06:54:29.861Z,88.43
2023-04-16T06:57:01.429Z,88.30
2023-04-16T06:59:33.499Z,88.42
2023-04-16T07:02:06.255Z,88.35
2023-04-16T07:04:37.277Z,88.40
2023-04-16T07:07:09.246Z,88.35
2023-04-16T07:09:39.885Z,88.26
2023-04-16T07:12:14.022Z,88.52
2023-04-16T07:14:44.698Z,88.48
2023-04-16T07:17:16.808Z,88.48
2023-04-16T07:19:48.120Z,88.44
2023-04-16T07:22:20.264Z,88.37
2023-04-16T07:24:50.901Z,88.34
2023-04-16T07:27:21.444Z,88.38
2023-04-16T07:29:52.988Z,88.49
2023-04-16T07:32:24.029Z,88.47
2023-04-16T07:34:56.074Z,88.57
2023-04-16T07:37:28.237Z,88.54
2023-04-16T07:40:00.840Z,88.50
2023-04-16T07:42:31.546Z,88.55
2023-04-16T07:45:02.033Z,88.26
2023-04-16T07:47:33.766Z,88.25
2023-04-16T07:50:04.695Z,87.98
2023-04-16T07:52:35.728Z,88.11
2023-04-16T07:55:06.669Z,88.13
2023-04-16T07:57:37.480Z,88.11
2023-04-16T08:00:10.272Z,88.21
2023-04-16T08:02:42.173Z,88.37
2023-04-16T08:05:13.522Z,88.31
2023-04-16T08:07:45.558Z,88.29
2023-04-16T08:10:19.073Z,88.34
2023-04-16T08:12:49.368Z,88.31
2023-04-16T08:15:21.213Z,88.08
2023-04-16T08:17:51.798Z,88.15
2023-04-16T08:20:22.296Z,88.31
2023-04-16T08:22:56.160Z,88.62
2023-04-16T08:25:26.807Z,88.64
2023-04-16T08:27:57.400Z,88.66
2023-04-16T08:30:32.977Z,88.57
2023-04-16T08:33:03.638Z,88.60
2023-04-16T08:35:34.452Z,88.62
2023-04-16T08:38:07.249Z,88.61
2023-04-16T08:40:43.622Z,88.68
2023-04-16T08:43:16.302Z,88.69
2023-04-16T08:45:48.560Z,88.61
2023-04-16T08:48:22.841Z,88.51
2023-04-16T08:50:55.306Z,88.58
2023-04-16T08:53:32.403Z,88.51
2023-04-16T08:56:05.401Z,88.47
2023-04-16T08:58:37.865Z,88.66
2023-04-16T09:01:11.281Z,88.68
2023-04-16T09:03:42.911Z,88.74
2023-04-16T09:06:14.463Z,88.47
2023-04-16T09:08:46.702Z,88.55
2023-04-16T09:11:19.065Z,88.23
2023-04-16T09:13:49.584Z,87.94
2023-04-16T09:16:21.966Z,87.60
2023-04-16T09:18:53.410Z,87.58
2023-04-16T09:21:24.189Z,87.53
2023-04-16T09:23:56.553Z,87.22
2023-04-16T09:26:29.101Z,87.25
2023-04-16T09:28:59.638Z,87.42
2023-04-16T09:31:30.653Z,87.57
2023-04-16T09:34:11.169Z,86.99
2023-04-16T09:36:41.607Z,86.79
2023-04-16T09:39:15.227Z,87.06
2023-04-16T09:41:47.766Z,87.26
2023-04-16T09:44:18.343Z,87.45
2023-04-16T09:46:48.820Z,87.32
2023-04-16T09:49:21.000Z,87.47
2023-04-16T09:51:54.293Z,87.59
2023-04-16T09:54:27.781Z,87.07
2023-04-16T09:56:58.686Z,87.00
2023-04-16T09:59:31.872Z,86.46
2023-04-16T10:02:14.797Z,86.53
2023-04-16T10:04:53.070Z,86.68
2023-04-16T10:07:24.906Z,86.45
2023-04-16T10:10:01.794Z,85.65
2023-04-16T10:12:50.528Z,85.63
2023-04-16T10:15:27.154Z,84.96
2023-04-16T10:18:00.520Z,84.67
2023-04-16T10:20:31.359Z,83.95
2023-04-16T10:23:04.116Z,84.69
2023-04-16T10:25:35.727Z,84.76
2023-04-16T10:28:07.705Z,84.92
2023-04-16T10:30:40.313Z,85.34
2023-04-16T10:33:11.132Z,85.44
2023-04-16T10:35:43.354Z,84.97
2023-04-16T10:38:28.406Z,84.47
2023-04-16T10:41:05.288Z,84.35
2023-04-16T10:43:48.372Z,84.11
2023-04-16T10:46:38.368Z,83.61
2023-04-16T10:49:20.278Z,82.91
2023-04-16T10:51:56.863Z,82.18
2023-04-16T10:54:29.802Z,81.91
2023-04-16T10:57:04.600Z,82.35
2023-04-16T10:59:41.557Z,81.03
2023-04-16T11:02:18.064Z,80.53
2023-04-16T11:04:53.210Z,79.80
2023-04-16T11:07:36.628Z,79.40
2023-04-16T11:10:11.963Z,78.18
2023-04-16T11:12:49.999Z,78.73
2023-04-16T11:15:22.921Z,77.61
2023-04-16T11:17:55.667Z,77.82
2023-04-16T11:20:27.967Z,77.60
2023-04-16T11:22:59.342Z,77.95
2023-04-16T11:25:34.068Z,77.46
2023-04-16T11:28:06.800Z,80.27
2023-04-16T11:30:39.662Z,80.32
2023-04-16T11:33:23.675Z,80.96
2023-04-16T11:36:00.883Z,81.05
2023-04-16T11:38:36.981Z,81.52
2023-04-16T11:41:08.026Z,82.10
2023-04-16T11:43:38.658Z,82.94
2023-04-16T11:46:24.500Z,82.51
2023-04-16T11:48:55.618Z,82.29
2023-04-16T11:51:26.493Z,81.54
2023-04-16T11:54:00.032Z,81.01
2023-04-16T11:56:36.522Z,80.82
2023-04-16T11:59:15.608Z,81.09
2023-04-16T12:01:48.416Z,81.33
2023-04-16T12:04:21.960Z,81.89
2023-04-16T12:07:12.135Z,82.86
2023-04-16T12:09:44.824Z,83.41
2023-04-16T12:12:31.480Z,83.00
2023-04-16T12:15:04.035Z,83.58
2023-04-16T12:17:36.740Z,83.53
2023-04-16T12:20:16.131Z,83.21
2023-04-16T12:22:50.054Z,82.90
2023-04-16T12:25:21.155Z,82.90
2023-04-16T12:27:54.293Z,82.60
2023-04-16T12:30:26.723Z,82.25
2023-04-16T12:33:18.025Z,82.90
2023-04-16T12:35:52.735Z,82.99
2023-04-16T12:38:25.837Z,82.13
2023-04-16T12:40:58.450Z,82.45
2023-04-16T12:43:30.032Z,82.62
2023-04-16T12:46:04.119Z,82.55
2023-04-16T12:48:39.061Z,82.79
2023-04-16T12:51:14.039Z,82.68
2023-04-16T12:53:46.147Z,82.71
2023-04-16T12:56:19.740Z,83.40
2023-04-16T12:58:53.111Z,83.19
2023-04-16T13:01:25.938Z,83.66
2023-04-16T13:03:56.755Z,83.93
2023-04-16T13:06:37.842Z,84.52
2023-04-16T13:09:10.230Z,84.75
2023-04-16T13:11:44.134Z,84.41
2023-04-16T13:14:14.618Z,84.54
2023-04-16T13:16:48.941Z,83.94
2023-04-16T13:19:21.284Z,84.19
2023-04-16T13:21:53.568Z,83.44
2023-04-16T13:24:24.342Z,82.99
2023-04-16T13:26:56.498Z,81.98
2023-04-16T13:29:27.078Z,82.15
2023-04-16T13:31:59.553Z,81.56
2023-04-16T13:34:30.118Z,81.15
2023-04-16T13:37:00.875Z,80.00
2023-04-16T13:39:34.063Z,80.68
2023-04-16T13:42:06.286Z,80.13
2023-04-16T13:44:38.274Z,79.60
2023-04-16T13:47:08.745Z,79.95
2023-04-16T13:49:39.375Z,79.50
2023-04-16T13:52:11.029Z,79.87
2023-04-16T13:54:45.245Z,79.53
2023-04-16T13:57:16.395Z,79.59
2023-04-16T13:59:47.192Z,79.52
2023-04-16T14:02:19.012Z,79.41
2023-04-16T14:04:52.618Z,78.32
2023-04-16T14:07:25.699Z,78.62
2023-04-16T14:09:57.744Z,79.14
2023-04-16T14:12:30.132Z,79.55
2023-04-16T14:15:04.323Z,79.54
2023-04-16T14:17:34.751Z,79.72
2023-04-16T14:20:06.945Z,79.02
2023-04-16T14:22:37.582Z,78.18
2023-04-16T14:25:10.486Z,78.24
2023-04-16T14:27:42.430Z,78.53
2023-04-16T14:30:13.347Z,78.97
2023-04-16T14:32:44.442Z,78.84
2023-04-16T14:35:25.742Z,78.82
2023-04-16T14:37:58.459Z,79.28
2023-04-16T14:40:29.928Z,77.91
2023-04-16T14:43:01.518Z,78.11
2023-04-16T14:45:32.460Z,78.74
2023-04-16T14:48:03.176Z,78.73
2023-04-16T14:50:41.730Z,79.42
2023-04-16T14:53:15.317Z,79.46
2023-04-16T14:55:45.847Z,78.98
2023-04-16T14:58:16.541Z,80.01
2023-04-16T15:00:49.461Z,79.99
2023-04-16T15:03:20.259Z,80.60
2023-04-16T15:05:53.567Z,81.39
2023-04-16T15:08:24.798Z,82.14
2023-04-16T15:10:57.211Z,82.04
2023-04-16T15:13:30.849Z,82.30
2023-04-16T15:16:02.876Z,82.59
2023-04-16T15:18:34.834Z,82.34
2023-04-16T15:21:05.494Z,82.51
2023-04-16T15:23:36.924Z,82.21
2023-04-16T15:26:07.577Z,82.10
2023-04-16T15:28:39.638Z,82.12
2023-04-16T15:31:10.378Z,82.23
2023-04-16T15:33:40.884Z,81.76
2023-04-16T15:36:12.033Z,81.86
2023-04-16T15:38:43.108Z,82.01
2023-04-16T15:41:13.702Z,81.87
2023-04-16T15:43:46.162Z,81.60
2023-04-16T15:46:17.116Z,82.00
2023-04-16T15:48:48.400Z,81.84
2023-04-16T15:51:19.283Z,81.93
2023-04-16T15:53:50.496Z,81.82
2023-04-16T15:56:21.107Z,81.67
2023-04-16T15:58:54.598Z,82.42
2023-04-16T16:01:25.380Z,82.20
2023-04-16T16:03:56.525Z,82.75
2023-04-16T16:06:28.608Z,82.27
2023-04-16T16:09:01.362Z,82.02
2023-04-16T16:11:33.133Z,81.57
2023-04-16T16:14:03.650Z,81.99
2023-04-16T16:16:34.553Z,82.32
2023-04-16T16:19:07.824Z,82.04
2023-04-16T16:21:41.146Z,82.15
2023-04-16T16:24:11.741Z,82.64
2023-04-16T16:26:44.415Z,83.44
2023-04-16T16:29:17.054Z,83.60
2023-04-16T16:31:49.250Z,83.65
2023-04-16T16:34:21.288Z,83.25
2023-04-16T16:36:52.538Z,83.24
2023-04-16T16:39:31.237Z,83.49
2023-04-16T16:41:58.053Z,83.48
2023-04-16T16:44:30.721Z,83.61
2023-04-16T16:47:01.304Z,83.64
2023-04-16T16:49:31.877Z,83.68
2023-04-16T16:52:02.814Z,83.58
2023-04-16T16:54:36.605Z,83.73
2023-04-16T16:57:08.067Z,83.11
2023-04-16T16:59:38.622Z,83.05
2023-04-16T17:02:09.690Z,83.00
2023-04-16T17:04:40.470Z,83.31
2023-04-16T17:07:12.815Z,83.55
2023-04-16T17:09:44.809Z,83.49
2023-04-16T17:12:15.865Z,83.73
2023-04-16T17:14:50.238Z,84.12
2023-04-16T17:17:24.307Z,84.38
2023-04-16T17:19:56.248Z,84.07
2023-04-16T17:22:26.712Z,84.01
2023-04-16T17:24:58.764Z,84.25
2023-04-16T17:27:30.995Z,84.34
2023-04-16T17:30:02.832Z,84.25
2023-04-16T17:32:33.973Z,83.91
2023-04-16T17:35:07.207Z,84.12
2023-04-16T17:37:37.756Z,84.09
2023-04-16T17:40:13.554Z,84.22
2023-04-16T17:42:49.100Z,84.34
2023-04-16T17:45:20.410Z,84.54
2023-04-16T17:47:52.706Z,84.59
2023-04-16T17:50:23.245Z,84.69
2023-04-16T17:52:54.120Z,84.43
2023-04-16T17:55:29.277Z,84.64
2023-04-16T17:57:56.788Z,84.73
2023-04-16T18:00:27.483Z,84.62
2023-04-16T18:02:59.825Z,84.78
2023-04-16T18:05:33.475Z,84.39
2023-04-16T18:08:05.970Z,84.61
2023-04-16T18:10:41.756Z,84.79
2023-04-16T18:13:12.347Z,84.60
2023-04-16T18:15:43.162Z,84.53
2023-04-16T18:18:15.180Z,84.53
2023-04-16T18:20:46.965Z,84.46
2023-04-16T18:23:17.660Z,84.80
2023-04-16T18:25:48.938Z,84.94
2023-04-16T18:28:21.279Z,85.18
2023-04-16T18:30:59.345Z,85.48
2023-04-16T18:33:52.580Z,85.47
2023-04-16T18:36:04.169Z,85.76
2023-04-16T18:38:35.119Z,86.02
2023-04-16T18:41:07.771Z,86.20
2023-04-16T18:43:38.375Z,85.81
2023-04-16T18:46:08.879Z,86.04
2023-04-16T18:48:39.891Z,86.37
2023-04-16T18:51:11.167Z,86.31
2023-04-16T18:53:43.479Z,86.13
2023-04-16T18:56:14.056Z,86.60
2023-04-16T18:58:44.581Z,86.72
2023-04-16T19:01:16.745Z,86.54
2023-04-16T19:03:47.628Z,86.74
2023-04-16T19:06:19.665Z,86.69
2023-04-16T19:08:50.818Z,86.43
2023-04-16T19:11:21.584Z,86.54
2023-04-16T19:13:53.634Z,86.82
2023-04-16T19:16:24.531Z,86.82
2023-04-16T19:18:55.041Z,86.42
2023-04-16T19:21:29.477Z,86.02
2023-04-16T19:24:00.198Z,86.21
2023-04-16T19:26:30.668Z,86.15
2023-04-16T19:29:01.420Z,86.20
2023-04-16T19:31:33.894Z,86.29
2023-04-16T19:34:04.496Z,86.37
2023-04-16T19:36:35.109Z,86.23
2023-04-16T19:39:06.394Z,86.08
2023-04-16T19:41:37.195Z,86.17
2023-04-16T19:44:11.130Z,86.42
2023-04-16T19:46:41.921Z,86.25
2023-04-16T19:49:12.778Z,86.24
2023-04-16T19:51:46.076Z,86.13
2023-04-16T19:54:18.838Z,86.18
2023-04-16T19:56:52.336Z,86.17
2023-04-16T19:59:24.685Z,86.45
2023-04-16T20:01:57.121Z,86.17
2023-04-16T20:04:28.849Z,86.17
2023-04-16T20:06:59.376Z,86.00
2023-04-16T20:09:29.952Z,86.01
2023-04-16T20:12:01.582Z,85.96
2023-04-16T20:14:32.176Z,86.05
2023-04-16T20:17:03.680Z,86.30
2023-04-16T20:19:37.164Z,86.08
2023-04-16T20:22:07.744Z,86.08
2023-04-16T20:24:38.598Z,86.49
2023-04-16T20:27:09.192Z,86.48
2023-04-16T20:29:39.898Z,85.51
2023-04-16T20:32:10.636Z,85.97
2023-04-16T20:34:42.795Z,85.78
2023-04-16T20:37:15.233Z,86.11
2023-04-16T20:39:46.817Z,86.33
2023-04-16T20:42:20.508Z,86.18
2023-04-16T20:44:52.976Z,86.17
2023-04-16T20:47:25.068Z,86.32
2023-04-16T20:49:55.917Z,86.32
2023-04-16T20:52:27.574Z,86.67
2023-04-16T20:54:58.127Z,86.59
2023-04-16T20:57:29.886Z,86.76
2023-04-16T21:00:00.433Z,86.67
2023-04-16T21:02:31.175Z,87.27
2023-04-16T21:05:02.370Z,86.98
2023-04-16T21:07:33.165Z,86.70
2023-04-16T21:10:04.050Z,86.64
2023-04-16T21:12:36.193Z,86.48
2023-04-16T21:15:07.394Z,86.37
2023-04-16T21:17:50.919Z,86.56
2023-04-16T21:20:23.462Z,86.64
2023-04-16T21:22:55.978Z,86.53
2023-04-16T21:25:28.341Z,86.70
2023-04-16T21:27:59.721Z,86.94
2023-04-16T21:30:32.595Z,86.97
2023-04-16T21:33:04.237Z,87.02
2023-04-16T21:35:35.795Z,87.13
2023-04-16T21:38:06.447Z,87.21
2023-04-16T21:40:36.997Z,87.38
2023-04-16T21:43:12.088Z,87.27
2023-04-16T21:45:43.320Z,87.37
2023-04-16T21:48:14.060Z,87.26
2023-04-16T21:50:44.644Z,87.32
2023-04-16T21:53:15.185Z,87.39
2023-04-16T21:55:47.144Z,87.50
2023-04-16T21:58:17.782Z,87.87
2023-04-16T22:00:48.433Z,87.68
2023-04-16T22:03:26.774Z,87.63
2023-04-16T22:06:01.396Z,87.56
2023-04-16T22:08:32.124Z,87.50
2023-04-16T22:11:04.817Z,87.63
2023-04-16T22:13:36.696Z,87.60
2023-04-16T22:16:09.500Z,87.68
2023-04-16T22:18:41.194Z,87.57
2023-04-16T22:21:11.828Z,87.94
2023-04-16T22:23:45.529Z,87.64
2023-04-16T22:26:16.244Z,87.66
2023-04-16T22:28:47.387Z,87.59
2023-04-16T22:31:17.791Z,87.76
2023-04-16T22:33:48.438Z,87.76
2023-04-16T22:36:19.297Z,87.50
2023-04-16T22:38:50.855Z,87.14
2023-04-16T22:41:23.161Z,87.36
2023-04-16T22:43:56.312Z,87.16
2023-04-16T22:46:28.758Z,87.43
2023-04-16T22:48:59.489Z,87.16
2023-04-16T22:51:30.355Z,87.19
2023-04-16T22:54:00.805Z,86.98
2023-04-16T22:56:31.279Z,86.54
2023-04-16T22:59:02.012Z,86.77
2023-04-16T23:01:32.884Z,86.83
2023-04-16T23:04:04.055Z,86.72
2023-04-16T23:06:34.953Z,87.06
2023-04-16T23:09:08.272Z,87.08
2023-04-16T23:11:39.122Z,86.75
2023-04-16T23:14:10.727Z,86.55
2023-04-16T23:16:43.023Z,86.63
2023-04-16T23:19:15.242Z,86.47
2023-04-16T23:21:46.126Z,86.36
2023-04-16T23:24:18.192Z,86.11
2023-04-16T23:26:50.149Z,86.15
2023-04-16T23:29:21.628Z,85.94
2023-04-16T23:31:52.381Z,85.92
2023-04-16T23:34:23.020Z,85.73
2023-04-16T23:36:55.361Z,85.53
2023-04-16T23:39:26.310Z,85.52
2023-04-16T23:41:57.541Z,85.50
2023-04-16T23:44:28.080Z,85.10
2023-04-16T23:46:58.564Z,85.52
2023-04-16T23:49:29.355Z,85.40
2023-04-16T23:52:00.093Z,85.54
2023-04-16T23:54:32.815Z,85.30
2023-04-16T23:57:04.729Z,85.20
2023-04-16T23:59:37.337Z,84.85
